Time;durP1;ratioP1;P1;durP2;ratioP2;P2;SDS_P1;SDS_P2;PMS_P1;PMS_P2;Temp;Humidity;BMP_temperature;BMP_pressure;BME280_temperature;BME280_humidity;BME280_pressure;Samples;Min_cycle;Max_cycle;Signal;HPM_P1;HPM_P2
2022/03/06 00:00:38;;;;;;;17.00;11.60;;;2.10;63.50;;;;;;6310530;22;20058;-86
2022/03/06 00:03:04;;;;;;;16.17;11.30;;;2.10;63.50;;;;;;6282637;22;20015;-86
2022/03/06 00:05:30;;;;;;;18.70;12.20;;;2.10;63.50;;;;;;6310480;22;20050;-86
2022/03/06 00:07:58;;;;;;;20.73;13.07;;;2.10;63.40;;;;;;6310443;22;20061;-86
2022/03/06 00:10:25;;;;;;;17.43;11.80;;;2.10;63.40;;;;;;6310045;22;20518;-86
2022/03/06 00:12:51;;;;;;;17.30;11.87;;;2.00;63.50;;;;;;6310127;22;20100;-86
2022/03/06 00:15:17;;;;;;;21.40;13.00;;;2.00;63.50;;;;;;6282441;22;20106;-86
2022/03/06 00:17:42;;;;;;;18.87;12.67;;;2.00;63.60;;;;;;6310171;22;20449;-86
2022/03/06 00:20:08;;;;;;;16.17;12.07;;;2.00;63.70;;;;;;6257020;22;20015;-85
2022/03/06 00:22:35;;;;;;;18.40;11.90;;;2.00;63.70;;;;;;6281928;22;20019;-86
2022/03/06 00:25:02;;;;;;;17.67;13.10;;;2.00;63.60;;;;;;6311980;22;20023;-87
2022/03/06 00:27:28;;;;;;;17.00;11.57;;;2.00;63.70;;;;;;6287341;22;20015;-86
2022/03/06 00:29:53;;;;;;;17.57;12.30;;;2.00;63.80;;;;;;6283058;22;20019;-86
2022/03/06 00:32:19;;;;;;;16.90;12.17;;;2.00;64.00;;;;;;6309991;22;20015;-86
2022/03/06 00:34:46;;;;;;;16.60;11.77;;;2.00;64.00;;;;;;6282291;22;20039;-86
2022/03/06 00:37:12;;;;;;;17.20;12.70;;;2.00;63.90;;;;;;6310130;22;20017;-86
2022/03/06 00:39:37;;;;;;;17.07;12.63;;;2.00;64.00;;;;;;6309680;22;20054;-86
2022/03/06 00:42:03;;;;;;;16.10;11.87;;;2.00;63.90;;;;;;6256453;22;20019;-86
2022/03/06 00:44:29;;;;;;;18.63;13.03;;;2.00;64.00;;;;;;6309727;22;20015;-86
2022/03/06 00:46:54;;;;;;;21.47;14.70;;;2.00;63.90;;;;;;6310044;22;20308;-86
2022/03/06 00:49:20;;;;;;;19.63;13.00;;;2.00;63.80;;;;;;6282488;22;20029;-86
2022/03/06 00:51:45;;;;;;;17.87;12.37;;;2.00;63.90;;;;;;6310046;22;20011;-86
2022/03/06 00:54:11;;;;;;;17.30;12.40;;;2.00;63.80;;;;;;6321718;22;20022;-86
2022/03/06 00:56:37;;;;;;;17.20;12.80;;;2.00;63.90;;;;;;6328132;22;20068;-86
2022/03/06 00:59:02;;;;;;;20.00;14.27;;;2.00;64.00;;;;;;6317426;22;20032;-86
2022/03/06 01:01:28;;;;;;;15.43;12.13;;;2.00;64.00;;;;;;6310001;22;20082;-86
2022/03/06 01:03:54;;;;;;;18.07;12.90;;;2.00;64.00;;;;;;6310024;22;20019;-86
2022/03/06 01:06:19;;;;;;;17.40;12.77;;;1.90;64.00;;;;;;6309708;22;20011;-86
2022/03/06 01:08:45;;;;;;;18.67;13.50;;;2.00;64.10;;;;;;6281932;22;20362;-86
2022/03/06 01:11:10;;;;;;;20.30;14.60;;;2.00;64.10;;;;;;6256387;22;20037;-86
2022/03/06 01:13:36;;;;;;;17.30;13.20;;;2.00;64.20;;;;;;6281836;22;20026;-86
2022/03/06 01:16:02;;;;;;;19.07;13.27;;;2.00;64.20;;;;;;6282200;22;20019;-86
2022/03/06 01:18:27;;;;;;;19.53;13.20;;;1.90;64.20;;;;;;6309451;22;20042;-86
2022/03/06 01:20:53;;;;;;;17.70;13.67;;;2.00;64.20;;;;;;6309674;22;20019;-86
2022/03/06 01:23:19;;;;;;;16.87;13.80;;;2.00;64.30;;;;;;6282128;22;20030;-85
2022/03/06 01:25:45;;;;;;;18.10;13.33;;;2.00;64.30;;;;;;6309738;22;20030;-86
2022/03/06 01:28:10;;;;;;;22.77;15.20;;;2.00;64.40;;;;;;6309355;22;20015;-86
2022/03/06 01:30:36;;;;;;;24.70;17.03;;;2.00;64.40;;;;;;6309609;22;20011;-87
2022/03/06 01:33:02;;;;;;;22.43;16.37;;;2.00;64.40;;;;;;6282390;22;20317;-87
2022/03/06 01:35:27;;;;;;;23.23;16.83;;;2.00;64.30;;;;;;6281879;22;20011;-87
2022/03/06 01:37:53;;;;;;;21.33;15.17;;;1.90;64.30;;;;;;6309996;22;20011;-87
2022/03/06 01:40:19;;;;;;;20.50;15.53;;;1.90;64.50;;;;;;6309107;22;20019;-88
2022/03/06 01:42:47;;;;;;;18.93;13.60;;;1.90;64.30;;;;;;6282201;22;20016;-86
2022/03/06 01:45:13;;;;;;;18.90;13.37;;;1.80;64.40;;;;;;6309392;22;20026;-86
2022/03/06 01:47:45;;;;;;;16.87;12.43;;;1.80;64.60;;;;;;6281813;22;20017;-86
2022/03/06 01:50:15;;;;;;;17.07;12.83;;;1.80;64.70;;;;;;6281998;22;20015;-86
2022/03/06 01:52:42;;;;;;;17.37;12.63;;;1.80;64.80;;;;;;6309353;22;20011;-86
2022/03/06 01:55:08;;;;;;;16.53;13.13;;;1.80;64.90;;;;;;6309393;22;20018;-86
2022/03/06 01:57:34;;;;;;;15.83;12.83;;;1.80;65.00;;;;;;6281600;22;20205;-86
2022/03/06 02:00:01;;;;;;;19.30;12.80;;;1.80;65.00;;;;;;6281553;22;20020;-86
2022/03/06 02:02:27;;;;;;;17.77;12.37;;;1.80;65.10;;;;;;6281696;22;20011;-86
2022/03/06 02:04:52;;;;;;;17.97;13.27;;;1.80;65.20;;;;;;6281741;22;20060;-87
2022/03/06 02:07:18;;;;;;;17.33;13.13;;;1.80;65.30;;;;;;6307494;22;20371;-87
2022/03/06 02:09:44;;;;;;;16.30;13.00;;;1.80;65.30;;;;;;6309137;22;20015;-87
2022/03/06 02:15:34;;;;;;;19.30;13.27;;;1.80;65.40;;;;;;6308509;22;20098;-87
2022/03/06 02:18:00;;;;;;;18.67;13.17;;;1.80;65.30;;;;;;6309260;22;20047;-87
2022/03/06 02:20:28;;;;;;;17.90;13.63;;;1.80;65.50;;;;;;6309370;22;20049;-87
2022/03/06 02:22:58;;;;;;;16.03;12.13;;;1.80;65.50;;;;;;6309619;22;20015;-87
2022/03/06 02:25:33;;;;;;;16.43;11.77;;;1.80;65.60;;;;;;6255666;22;20047;-87
2022/03/06 02:28:02;;;;;;;20.57;13.80;;;1.80;65.70;;;;;;6309352;22;20018;-87
2022/03/06 02:30:32;;;;;;;16.90;12.87;;;1.80;65.80;;;;;;6282020;22;20093;-87
2022/03/06 02:32:59;;;;;;;18.30;12.53;;;1.80;65.80;;;;;;6307447;22;20019;-87
2022/03/06 02:35:26;;;;;;;16.27;12.07;;;1.80;65.90;;;;;;6281814;22;20033;-87
2022/03/06 02:37:52;;;;;;;13.47;11.03;;;1.80;65.90;;;;;;6281771;22;20023;-87
2022/03/06 02:40:20;;;;;;;14.87;11.80;;;1.80;65.90;;;;;;6308896;22;20069;-87
2022/03/06 02:42:47;;;;;;;14.50;11.37;;;1.80;65.90;;;;;;6282246;22;20022;-87
2022/03/06 02:45:23;;;;;;;15.47;11.77;;;1.90;66.00;;;;;;6309415;22;20015;-87
2022/03/06 02:47:50;;;;;;;16.20;10.93;;;1.90;66.00;;;;;;6309259;22;20019;-88
2022/03/06 02:50:19;;;;;;;15.57;11.07;;;1.90;66.10;;;;;;6309033;22;20020;-87
2022/03/06 02:52:46;;;;;;;16.73;11.23;;;1.90;66.10;;;;;;6309304;22;20023;-86
2022/03/06 02:55:13;;;;;;;15.63;11.37;;;1.90;66.10;;;;;;6309230;22;20015;-87
2022/03/06 03:01:04;;;;;;;15.43;11.20;;;1.90;66.10;;;;;;6308626;22;20110;-87
2022/03/06 03:03:38;;;;;;;17.83;11.37;;;1.90;66.00;;;;;;6309432;22;20054;-87
2022/03/06 03:06:07;;;;;;;13.95;10.30;;;1.90;66.10;;;;;;6308963;22;20497;-87
2022/03/06 03:08:32;;;;;;;13.77;10.70;;;2.00;66.00;;;;;;6282328;22;20015;-87
2022/03/06 03:10:58;;;;;;;14.30;9.50;;;1.90;66.00;;;;;;6281362;22;20019;-87
2022/03/06 03:14:15;;;;;;;13.83;10.07;;;2.00;66.00;;;;;;6256366;22;20027;-87
2022/03/06 03:16:41;;;;;;;14.27;10.23;;;2.00;65.90;;;;;;6280301;22;20090;-87
2022/03/06 03:19:07;;;;;;;13.90;10.10;;;2.00;65.70;;;;;;6252732;22;20011;-87
2022/03/06 03:21:33;;;;;;;14.03;10.00;;;2.00;65.60;;;;;;6253052;22;20016;-87
2022/03/06 03:23:59;;;;;;;14.00;9.53;;;2.00;65.50;;;;;;6280050;22;20023;-87
2022/03/06 03:26:24;;;;;;;13.47;10.10;;;2.00;65.50;;;;;;6280060;22;20016;-87
2022/03/06 03:28:50;;;;;;;14.20;10.27;;;2.00;65.50;;;;;;6280010;22;20012;-87
2022/03/06 03:31:16;;;;;;;12.13;9.50;;;2.00;65.70;;;;;;6252858;22;20408;-87
2022/03/06 03:33:42;;;;;;;15.00;10.23;;;2.00;65.70;;;;;;6253144;22;20047;-87
2022/03/06 03:36:08;;;;;;;12.63;9.40;;;2.00;65.60;;;;;;6252887;22;20019;-87
2022/03/06 03:38:34;;;;;;;12.33;9.60;;;2.00;65.60;;;;;;6284432;22;20019;-88
2022/03/06 03:41:01;;;;;;;13.30;9.50;;;2.00;65.50;;;;;;6262645;22;20069;-87
2022/03/06 03:43:27;;;;;;;13.67;9.70;;;2.00;65.40;;;;;;6261930;22;20012;-86
2022/03/06 03:45:53;;;;;;;12.60;9.30;;;2.00;65.40;;;;;;6286186;22;20027;-87
2022/03/06 03:48:18;;;;;;;13.03;9.23;;;2.00;65.30;;;;;;6279607;22;20019;-87
2022/03/06 03:50:44;;;;;;;11.63;8.77;;;2.10;65.30;;;;;;6252485;22;20034;-87
2022/03/06 03:53:10;;;;;;;13.03;9.23;;;2.10;65.30;;;;;;6253014;22;20435;-86
2022/03/06 03:55:35;;;;;;;11.80;8.73;;;2.10;65.30;;;;;;6280266;22;20456;-87
2022/03/06 04:01:26;;;;;;;13.60;8.63;;;2.10;65.10;;;;;;6279137;22;20066;-86
2022/03/06 04:03:52;;;;;;;12.77;8.87;;;2.10;65.00;;;;;;6254754;22;20359;-87
2022/03/06 04:06:17;;;;;;;11.67;8.73;;;2.10;65.00;;;;;;6286246;22;20024;-87
2022/03/06 04:08:43;;;;;;;11.60;9.17;;;2.10;64.90;;;;;;6280932;22;20482;-86
2022/03/06 04:11:09;;;;;;;13.77;9.43;;;2.10;64.80;;;;;;6252853;22;20019;-87
2022/03/06 04:13:53;;;;;;;12.13;9.30;;;2.10;64.70;;;;;;6256458;22;20309;-87
2022/03/06 04:16:19;;;;;;;14.57;9.32;;;2.10;64.70;;;;;;6288785;22;20024;-87
2022/03/06 04:18:44;;;;;;;12.37;8.50;;;2.10;64.60;;;;;;6295127;22;20027;-86
2022/03/06 04:21:10;;;;;;;11.77;8.67;;;2.10;64.50;;;;;;6293913;22;20079;-87
2022/03/06 04:23:36;;;;;;;12.57;9.33;;;2.10;64.50;;;;;;6295737;22;20020;-87
2022/03/06 04:26:02;;;;;;;12.97;9.30;;;2.00;64.30;;;;;;6295974;22;20015;-87
2022/03/06 04:28:46;;;;;;;10.60;8.33;;;2.00;64.70;;;;;;6299615;22;19996;-86
2022/03/06 04:31:12;;;;;;;12.15;8.50;;;2.00;64.30;;;;;;6303012;22;20043;-87
2022/03/06 04:33:38;;;;;;;11.30;8.53;;;2.00;64.40;;;;;;6301835;22;20038;-87
2022/03/06 04:36:04;;;;;;;11.47;8.47;;;1.90;64.50;;;;;;6302366;22;20090;-86
2022/03/06 04:38:30;;;;;;;13.47;8.73;;;2.00;64.60;;;;;;6302739;22;20003;-87
2022/03/06 04:40:55;;;;;;;11.73;8.40;;;2.00;64.60;;;;;;6303341;22;20051;-87
2022/03/06 04:43:24;;;;;;;14.70;9.33;;;1.90;64.60;;;;;;6293873;22;20328;-87
2022/03/06 04:45:50;;;;;;;12.10;8.00;;;2.00;64.70;;;;;;6290264;22;20016;-87
2022/03/06 04:48:16;;;;;;;11.17;8.40;;;1.90;64.60;;;;;;6288202;22;20016;-87
2022/03/06 04:50:41;;;;;;;10.10;7.47;;;1.90;64.70;;;;;;6288909;22;20106;-87
2022/03/06 04:53:07;;;;;;;11.43;7.70;;;1.90;64.60;;;;;;6297653;22;20042;-87
2022/03/06 04:55:33;;;;;;;10.43;8.53;;;1.90;64.60;;;;;;6303172;22;20015;-83
2022/03/06 04:57:58;;;;;;;10.37;8.00;;;1.90;64.50;;;;;;6303372;22;20020;-86
2022/03/06 05:00:24;;;;;;;11.77;8.47;;;1.90;64.50;;;;;;6288074;22;20035;-87
2022/03/06 05:02:50;;;;;;;10.83;8.30;;;1.90;64.50;;;;;;6279310;22;20087;-87
2022/03/06 05:05:15;;;;;;;12.27;7.63;;;1.90;64.50;;;;;;6277465;22;20094;-87
2022/03/06 05:07:41;;;;;;;11.07;7.70;;;1.90;64.50;;;;;;6275773;22;20119;-88
2022/03/06 05:10:10;;;;;;;10.43;8.03;;;1.90;64.60;;;;;;6278959;22;20050;-87
2022/03/06 05:12:54;;;;;;;12.60;7.77;;;1.80;64.50;;;;;;6277845;22;20019;-87
2022/03/06 05:15:20;;;;;;;8.83;6.30;;;1.80;64.50;;;;;;6295877;22;20064;-86
2022/03/06 05:17:45;;;;;;;10.00;7.70;;;1.80;64.40;;;;;;6255704;22;20665;-86
2022/03/06 05:20:13;;;;;;;10.47;7.33;;;1.80;64.50;;;;;;6282243;22;20023;-87
2022/03/06 05:22:39;;;;;;;9.20;6.90;;;1.80;64.50;;;;;;6309743;22;20335;-86
2022/03/06 05:25:06;;;;;;;12.23;7.90;;;1.80;64.60;;;;;;6282128;22;20027;-86
2022/03/06 05:27:32;;;;;;;9.97;6.83;;;1.80;64.50;;;;;;6309878;22;20038;-87
2022/03/06 05:29:57;;;;;;;11.00;7.37;;;1.80;64.60;;;;;;6282867;22;20015;-87
2022/03/06 05:32:23;;;;;;;9.83;7.47;;;1.80;64.60;;;;;;6309664;22;20057;-86
2022/03/06 05:34:49;;;;;;;10.97;7.67;;;1.80;64.50;;;;;;6309985;22;20026;-86
2022/03/06 05:37:14;;;;;;;11.50;7.43;;;1.80;64.50;;;;;;6308855;22;20099;-86
2022/03/06 05:39:40;;;;;;;11.50;7.43;;;1.80;64.50;;;;;;6309489;22;20041;-86
2022/03/06 05:42:06;;;;;;;8.80;6.63;;;1.80;64.50;;;;;;6309392;22;20014;-86
2022/03/06 05:44:32;;;;;;;9.50;6.90;;;1.80;64.40;;;;;;6309652;22;20022;-86
2022/03/06 05:46:57;;;;;;;9.50;7.10;;;1.80;64.50;;;;;;6281638;22;20012;-87
2022/03/06 05:49:23;;;;;;;9.53;6.33;;;1.70;64.40;;;;;;6281783;22;20015;-87
2022/03/06 05:51:49;;;;;;;8.93;6.77;;;1.70;64.40;;;;;;6281955;22;20094;-87
2022/03/06 05:54:15;;;;;;;10.80;7.10;;;1.70;64.50;;;;;;6281797;22;20026;-86
2022/03/06 05:56:40;;;;;;;8.80;6.53;;;1.70;64.50;;;;;;6282418;22;20011;-86
2022/03/06 05:59:06;;;;;;;10.07;6.27;;;1.70;64.60;;;;;;6309420;22;20300;-87
2022/03/06 06:01:32;;;;;;;10.90;6.97;;;1.70;64.60;;;;;;6281802;22;20023;-86
2022/03/06 06:04:02;;;;;;;9.27;6.37;;;1.70;64.60;;;;;;6309345;22;20015;-87
2022/03/06 06:06:28;;;;;;;9.83;5.80;;;1.70;64.60;;;;;;6281580;22;20094;-86
2022/03/06 06:08:54;;;;;;;9.07;6.37;;;1.70;64.60;;;;;;6307397;22;20050;-86
2022/03/06 06:11:21;;;;;;;8.50;5.53;;;1.60;64.60;;;;;;6309399;22;20049;-88
2022/03/06 06:13:48;;;;;;;9.03;5.90;;;1.60;64.60;;;;;;6310201;22;20085;-87
2022/03/06 06:16:14;;;;;;;10.13;6.00;;;1.60;64.60;;;;;;6308837;22;20065;-88
2022/03/06 06:18:40;;;;;;;8.90;6.13;;;1.60;64.60;;;;;;6309013;22;20431;-87
2022/03/06 06:21:06;;;;;;;9.20;5.67;;;1.60;64.60;;;;;;6281878;22;20015;-88
2022/03/06 06:23:32;;;;;;;9.33;6.13;;;1.60;64.60;;;;;;6281630;22;20019;-87
2022/03/06 06:25:58;;;;;;;10.17;6.17;;;1.60;64.70;;;;;;6255378;22;20093;-86
2022/03/06 06:28:24;;;;;;;7.20;5.33;;;1.60;64.70;;;;;;6281641;22;20018;-86
2022/03/06 06:30:50;;;;;;;10.07;5.80;;;1.60;64.70;;;;;;6309331;22;20015;-86
2022/03/06 06:33:16;;;;;;;8.60;6.10;;;1.60;64.80;;;;;;6281495;22;20058;-86
2022/03/06 06:35:41;;;;;;;6.57;5.00;;;1.60;64.80;;;;;;6308930;22;20026;-86
2022/03/06 06:38:07;;;;;;;7.87;5.77;;;1.60;64.80;;;;;;6281167;22;20022;-87
2022/03/06 06:40:33;;;;;;;8.93;5.30;;;1.60;64.80;;;;;;6280556;22;20113;-86
2022/03/06 06:43:19;;;;;;;11.37;6.17;;;1.60;64.90;;;;;;6281372;22;20087;-87
2022/03/06 06:45:44;;;;;;;10.07;5.83;;;1.50;64.90;;;;;;6281312;22;20426;-86
2022/03/06 06:48:10;;;;;;;8.40;5.77;;;1.60;64.90;;;;;;6308629;22;20066;-86
2022/03/06 06:50:36;;;;;;;8.20;5.27;;;1.60;65.00;;;;;;6309375;22;20011;-86
2022/03/06 06:53:02;;;;;;;8.03;5.13;;;1.60;65.10;;;;;;6287416;22;20015;-87
2022/03/06 06:55:27;;;;;;;9.87;5.83;;;1.60;65.10;;;;;;6319778;22;20380;-86
2022/03/06 06:58:30;;;;;;;8.47;5.03;;;1.50;65.10;;;;;;6283314;22;20094;-87
2022/03/06 07:00:56;;;;;;;9.07;4.60;;;1.50;65.30;;;;;;6256244;22;20019;-88
2022/03/06 07:03:21;;;;;;;10.43;5.13;;;1.50;65.20;;;;;;6257039;22;20014;-89
2022/03/06 07:05:48;;;;;;;9.53;4.97;;;1.50;65.30;;;;;;6282849;22;20466;-87
2022/03/06 07:08:13;;;;;;;8.70;5.13;;;1.50;65.50;;;;;;6282913;22;20394;-87
2022/03/06 07:10:39;;;;;;;11.13;5.47;;;1.50;65.50;;;;;;6256057;22;20047;-87
2022/03/06 07:13:05;;;;;;;9.93;5.67;;;1.50;65.60;;;;;;6309431;22;20011;-87
2022/03/06 07:15:32;;;;;;;8.90;4.97;;;1.50;65.70;;;;;;6281233;22;20532;-87
2022/03/06 07:18:00;;;;;;;6.90;4.80;;;1.50;65.80;;;;;;6281660;22;20338;-86
2022/03/06 07:20:28;;;;;;;11.00;5.40;;;1.50;65.80;;;;;;6281294;22;20046;-88
2022/03/06 07:22:54;;;;;;;8.20;4.70;;;1.50;65.90;;;;;;6281142;22;20028;-87
2022/03/06 07:25:20;;;;;;;8.23;5.17;;;1.50;66.00;;;;;;6281224;22;20324;-88
2022/03/06 07:27:46;;;;;;;8.83;5.13;;;1.50;66.10;;;;;;6281561;22;20017;-87
2022/03/06 07:30:12;;;;;;;8.63;5.20;;;1.40;66.20;;;;;;6281350;22;20098;-88
2022/03/06 07:32:42;;;;;;;8.47;4.70;;;1.50;66.40;;;;;;6281518;22;20200;-87
2022/03/06 07:35:08;;;;;;;9.50;5.53;;;1.50;66.60;;;;;;6282103;22;20016;-88
2022/03/06 07:37:34;;;;;;;8.70;4.73;;;1.50;66.70;;;;;;6281980;22;20134;-88
2022/03/06 07:39:59;;;;;;;7.70;4.70;;;1.60;66.80;;;;;;6281811;22;20447;-88
2022/03/06 07:42:25;;;;;;;7.80;4.70;;;1.60;66.80;;;;;;6281959;22;20019;-88
2022/03/06 07:44:51;;;;;;;11.97;4.80;;;1.60;66.90;;;;;;6309389;22;20065;-87
2022/03/06 07:47:16;;;;;;;8.97;5.07;;;1.60;66.90;;;;;;6282860;22;20016;-87
2022/03/06 07:49:42;;;;;;;11.27;5.43;;;1.70;67.20;;;;;;6281672;22;20015;-87
2022/03/06 07:52:08;;;;;;;8.10;4.60;;;1.70;67.00;;;;;;6309217;22;20008;-88
2022/03/06 07:54:33;;;;;;;10.50;5.17;;;1.70;67.00;;;;;;6309280;22;20019;-87
2022/03/06 07:56:59;;;;;;;8.80;4.90;;;1.80;67.20;;;;;;6309279;22;20038;-88
2022/03/06 07:59:35;;;;;;;7.30;4.40;;;1.80;67.10;;;;;;6281932;22;20362;-88
2022/03/06 08:02:00;;;;;;;7.27;3.70;;;1.90;67.10;;;;;;6283443;22;20019;-89
2022/03/06 08:04:26;;;;;;;6.73;4.10;;;1.90;67.20;;;;;;6283589;22;20343;-88
2022/03/06 08:06:52;;;;;;;7.90;4.10;;;2.00;67.10;;;;;;6283812;22;20046;-89
2022/03/06 08:09:18;;;;;;;6.50;3.80;;;2.00;66.90;;;;;;6311238;22;20042;-88
2022/03/06 08:11:44;;;;;;;6.60;3.53;;;2.10;67.40;;;;;;6310540;22;20019;-88
2022/03/06 08:14:19;;;;;;;5.67;3.37;;;2.20;67.00;;;;;;6310610;22;20015;-88
2022/03/06 08:16:45;;;;;;;5.87;3.60;;;2.30;66.90;;;;;;6310287;22;20107;-87
2022/03/06 08:19:11;;;;;;;8.77;4.37;;;2.40;66.60;;;;;;6283016;22;20042;-87
2022/03/06 08:21:39;;;;;;;7.97;3.00;;;2.50;66.00;;;;;;6283191;22;20015;-88
2022/03/06 08:24:05;;;;;;;6.43;3.13;;;2.60;65.40;;;;;;6282943;22;20026;-87
2022/03/06 08:26:31;;;;;;;5.10;3.00;;;2.70;65.10;;;;;;6283042;22;20019;-87
2022/03/06 08:28:56;;;;;;;4.63;2.80;;;2.90;64.60;;;;;;6310476;22;20459;-86
2022/03/06 08:31:22;;;;;;;4.88;2.72;;;3.10;64.40;;;;;;6282550;22;20398;-87
2022/03/06 08:33:48;;;;;;;4.47;2.70;;;3.20;62.80;;;;;;6310106;22;20011;-86
2022/03/06 08:36:13;;;;;;;5.22;2.50;;;3.40;62.80;;;;;;6310418;22;20007;-86
2022/03/06 08:38:39;;;;;;;8.05;2.67;;;3.50;62.30;;;;;;6283094;22;20011;-86
2022/03/06 08:41:05;;;;;;;6.00;2.50;;;3.70;61.90;;;;;;6282066;22;20347;-86
2022/03/06 08:43:30;;;;;;;5.28;2.65;;;3.80;61.20;;;;;;6282547;22;20011;-86
2022/03/06 08:45:56;;;;;;;6.30;2.88;;;3.90;60.60;;;;;;6283173;22;20019;-87
2022/03/06 08:48:22;;;;;;;6.43;2.58;;;4.00;59.40;;;;;;6283720;22;20019;-87
2022/03/06 08:50:51;;;;;;;5.22;2.60;;;4.10;59.20;;;;;;6312787;22;20019;-86
2022/03/06 08:53:18;;;;;;;5.22;2.35;;;4.20;58.70;;;;;;6292050;22;20003;-86
2022/03/06 08:55:44;;;;;;;4.82;2.15;;;4.30;58.50;;;;;;6309517;22;20003;-85
2022/03/06 08:58:10;;;;;;;4.43;1.83;;;4.50;57.60;;;;;;6326381;22;20015;-86
2022/03/06 09:00:35;;;;;;;4.80;2.20;;;4.50;57.50;;;;;;6283254;22;20072;-86
2022/03/06 09:03:01;;;;;;;4.15;1.70;;;4.60;56.90;;;;;;6282494;22;20022;-85
2022/03/06 09:05:27;;;;;;;3.72;2.03;;;4.70;55.60;;;;;;6310111;22;20092;-86
2022/03/06 09:07:52;;;;;;;3.30;1.83;;;4.70;55.40;;;;;;6282072;22;20020;-85
2022/03/06 09:10:18;;;;;;;4.03;2.00;;;4.80;55.00;;;;;;6256205;22;20019;-86
2022/03/06 09:12:44;;;;;;;4.70;2.40;;;4.80;54.80;;;;;;6281783;22;20011;-85
2022/03/06 09:15:10;;;;;;;4.15;2.22;;;4.90;54.40;;;;;;6281952;22;20090;-85
2022/03/06 09:17:37;;;;;;;5.18;1.85;;;4.90;54.70;;;;;;6309715;22;20086;-85
2022/03/06 09:20:04;;;;;;;3.78;2.00;;;5.00;54.60;;;;;;6309544;22;20019;-86
2022/03/06 09:22:30;;;;;;;4.63;2.28;;;5.00;53.70;;;;;;6310350;22;20012;-86
2022/03/06 09:24:55;;;;;;;5.32;1.98;;;5.00;54.00;;;;;;6310251;22;20038;-87
2022/03/06 09:27:21;;;;;;;9.07;2.30;;;5.10;54.00;;;;;;6281629;22;20012;-86
2022/03/06 09:29:47;;;;;;;4.65;2.42;;;5.10;54.00;;;;;;6309323;22;20015;-86
2022/03/06 09:32:13;;;;;;;4.15;2.25;;;5.20;54.20;;;;;;6281484;22;20043;-86
2022/03/06 09:34:38;;;;;;;5.13;2.40;;;5.20;53.60;;;;;;6282197;22;20043;-85
2022/03/06 09:37:04;;;;;;;5.68;1.90;;;5.30;53.30;;;;;;6310159;22;20049;-86
2022/03/06 09:39:30;;;;;;;3.75;2.47;;;5.30;53.10;;;;;;6282453;22;20019;-86
2022/03/06 09:41:56;;;;;;;4.35;2.22;;;5.60;53.30;;;;;;6256174;22;20047;-86
2022/03/06 09:44:24;;;;;;;4.40;1.92;;;5.40;53.70;;;;;;6309321;22;20015;-87
2022/03/06 09:46:52;;;;;;;4.22;2.40;;;5.40;53.80;;;;;;6281603;22;20015;-86
2022/03/06 09:49:18;;;;;;;3.35;2.15;;;5.50;52.90;;;;;;6282067;22;20098;-85
2022/03/06 09:51:44;;;;;;;5.63;2.40;;;5.60;51.90;;;;;;6281559;22;20022;-85
2022/03/06 09:54:12;;;;;;;4.28;2.00;;;5.60;51.90;;;;;;6281949;22;20046;-85
2022/03/06 09:56:39;;;;;;;3.88;1.63;;;5.60;51.60;;;;;;6281259;22;20019;-84
2022/03/06 09:59:05;;;;;;;3.83;1.77;;;5.60;51.30;;;;;;6281307;22;20106;-85
2022/03/06 10:01:31;;;;;;;3.85;1.90;;;5.60;50.90;;;;;;6281639;22;20496;-85
2022/03/06 10:03:56;;;;;;;5.10;1.58;;;5.60;51.00;;;;;;6281057;22;20493;-85
2022/03/06 10:06:23;;;;;;;3.88;1.88;;;5.70;50.50;;;;;;6281575;22;20308;-85
2022/03/06 10:09:04;;;;;;;3.30;1.77;;;5.70;50.40;;;;;;6308969;22;20051;-85
2022/03/06 10:11:31;;;;;;;3.58;1.50;;;5.70;48.70;;;;;;6280935;22;20030;-85
2022/03/06 10:13:56;;;;;;;2.63;1.52;;;5.70;50.10;;;;;;6281034;22;20015;-85
2022/03/06 10:16:23;;;;;;;3.47;1.60;;;5.80;50.40;;;;;;6281324;22;20019;-85
2022/03/06 10:18:54;;;;;;;5.18;2.35;;;5.90;50.70;;;;;;6281505;22;20022;-85
2022/03/06 10:21:26;;;;;;;4.85;1.80;;;5.90;50.40;;;;;;6308594;22;20454;-85
2022/03/06 10:23:58;;;;;;;3.95;2.33;;;6.00;50.50;;;;;;6280957;22;20019;-85
2022/03/06 10:26:26;;;;;;;5.78;2.33;;;6.10;50.50;;;;;;6255566;22;20047;-85
2022/03/06 10:28:56;;;;;;;2.65;1.40;;;6.20;50.50;;;;;;6281516;22;20023;-86
2022/03/06 10:31:24;;;;;;;4.53;2.17;;;6.30;50.40;;;;;;6309162;22;20015;-85
2022/03/06 10:34:10;;;;;;;4.75;1.70;;;6.30;50.20;;;;;;6281201;22;20340;-85
2022/03/06 10:36:40;;;;;;;3.78;1.90;;;6.40;47.40;;;;;;6280850;22;20051;-85
2022/03/06 10:39:22;;;;;;;6.18;2.35;;;6.40;47.90;;;;;;6308354;22;20330;-85
2022/03/06 10:41:50;;;;;;;4.65;2.05;;;6.40;46.80;;;;;;6308450;22;20335;-85
2022/03/06 10:44:18;;;;;;;2.83;1.67;;;6.40;46.90;;;;;;6308617;22;20025;-84
2022/03/06 10:47:01;;;;;;;3.08;1.50;;;6.50;47.70;;;;;;6308745;22;20007;-85
2022/03/06 10:49:27;;;;;;;3.90;2.10;;;6.50;47.10;;;;;;6281013;22;20439;-85
2022/03/06 10:51:53;;;;;;;4.53;2.10;;;6.50;47.50;;;;;;6308141;22;20110;-84
2022/03/06 10:54:19;;;;;;;4.32;2.08;;;6.50;48.00;;;;;;6281233;22;20019;-85
2022/03/06 10:56:50;;;;;;;5.03;1.95;;;6.60;48.10;;;;;;6280928;22;20019;-84
2022/03/06 10:59:21;;;;;;;3.65;2.20;;;6.60;47.90;;;;;;6308531;22;20012;-84
2022/03/06 11:01:48;;;;;;;3.53;1.60;;;6.60;48.30;;;;;;6255651;22;20362;-84
2022/03/06 11:04:18;;;;;;;4.38;2.40;;;6.70;47.90;;;;;;6280807;22;20026;-84
2022/03/06 11:06:45;;;;;;;3.78;1.70;;;6.70;48.10;;;;;;6308410;22;20015;-85
2022/03/06 11:09:13;;;;;;;4.28;2.00;;;6.70;47.80;;;;;;6281259;22;20019;-84
2022/03/06 11:11:46;;;;;;;5.55;2.10;;;6.70;47.60;;;;;;6281161;22;20086;-84
2022/03/06 11:14:12;;;;;;;4.55;1.95;;;6.80;47.40;;;;;;6281029;22;20100;-84
2022/03/06 11:16:39;;;;;;;4.72;2.20;;;6.80;47.20;;;;;;6281224;22;20417;-84
2022/03/06 11:19:06;;;;;;;3.65;2.35;;;6.80;47.60;;;;;;6280946;22;20462;-84
2022/03/06 11:21:43;;;;;;;3.65;2.00;;;6.80;48.00;;;;;;6255426;22;20439;-84
2022/03/06 11:24:16;;;;;;;4.15;1.73;;;6.80;47.90;;;;;;6281095;22;20342;-84
2022/03/06 11:27:08;;;;;;;3.97;1.80;;;6.80;48.40;;;;;;6281257;22;20011;-84
2022/03/06 11:30:03;;;;;;;5.18;1.65;;;6.80;47.60;;;;;;6280964;22;20410;-84
2022/03/06 11:32:31;;;;;;;5.43;1.90;;;6.80;47.80;;;;;;6281464;22;20015;-85
2022/03/06 11:35:03;;;;;;;6.75;2.15;;;6.80;47.70;;;;;;6308952;22;20326;-84
2022/03/06 11:37:43;;;;;;;4.32;2.10;;;6.80;47.40;;;;;;6283376;22;20443;-85
2022/03/06 11:40:48;;;;;;;6.18;2.58;;;6.80;47.80;;;;;;6282268;22;20335;-84
2022/03/06 11:43:30;;;;;;;5.47;2.28;;;6.80;48.10;;;;;;6310246;22;20023;-84
2022/03/06 11:45:59;;;;;;;4.03;2.25;;;6.80;48.40;;;;;;6282270;22;20312;-84
2022/03/06 11:48:34;;;;;;;6.20;2.22;;;6.80;48.00;;;;;;6282793;22;20324;-84
2022/03/06 11:51:14;;;;;;;4.22;1.88;;;6.80;47.60;;;;;;6282335;22;20019;-84
2022/03/06 11:54:02;;;;;;;5.70;2.33;;;6.80;47.70;;;;;;6310506;22;20093;-87
2022/03/06 11:56:38;;;;;;;6.95;2.67;;;6.80;48.50;;;;;;6310395;22;20019;-87
2022/03/06 11:59:44;;;;;;;6.28;2.40;;;6.80;48.50;;;;;;6310400;22;20015;-87
2022/03/06 12:02:14;;;;;;;4.38;2.40;;;6.80;49.10;;;;;;6256986;22;20383;-87
2022/03/06 12:04:45;;;;;;;4.75;2.15;;;6.90;49.30;;;;;;6282581;22;20093;-87
2022/03/06 12:07:11;;;;;;;6.30;2.28;;;6.80;48.30;;;;;;6282905;22;20019;-87
2022/03/06 12:09:40;;;;;;;5.95;2.45;;;6.80;48.80;;;;;;6282646;22;20461;-86
2022/03/06 12:12:27;;;;;;;4.57;2.20;;;6.80;49.00;;;;;;6282535;22;20047;-87
2022/03/06 12:14:57;;;;;;;5.80;2.35;;;6.90;49.20;;;;;;6282523;22;20047;-87
2022/03/06 12:17:23;;;;;;;4.03;2.33;;;6.90;49.20;;;;;;6256940;22;20126;-86
2022/03/06 12:19:51;;;;;;;6.85;2.33;;;6.90;48.50;;;;;;6310130;22;20447;-87
2022/03/06 12:22:33;;;;;;;3.75;2.35;;;6.90;48.40;;;;;;6282169;22;20019;-87
2022/03/06 12:25:10;;;;;;;4.65;2.47;;;6.90;48.90;;;;;;6281998;22;20019;-86
2022/03/06 12:27:42;;;;;;;4.97;2.42;;;7.00;48.70;;;;;;6309947;22;20011;-86
2022/03/06 12:30:12;;;;;;;5.28;2.20;;;6.90;48.40;;;;;;6282416;22;20019;-86
2022/03/06 12:32:40;;;;;;;6.00;2.50;;;6.90;48.40;;;;;;6282029;22;20012;-86
2022/03/06 12:35:08;;;;;;;4.57;2.08;;;6.90;49.00;;;;;;6281256;22;20015;-86
2022/03/06 12:37:48;;;;;;;5.00;2.20;;;7.00;48.50;;;;;;6282657;22;20047;-86
2022/03/06 12:40:18;;;;;;;3.83;2.10;;;7.00;48.40;;;;;;6281894;22;20090;-86
2022/03/06 12:42:48;;;;;;;5.18;2.42;;;7.30;49.00;;;;;;6282562;22;20069;-86
2022/03/06 12:45:18;;;;;;;6.28;2.55;;;7.00;49.70;;;;;;6257018;22;20379;-86
2022/03/06 12:47:45;;;;;;;5.45;2.70;;;7.00;49.40;;;;;;6310321;22;20012;-87
2022/03/06 12:50:16;;;;;;;4.60;2.65;;;7.20;50.00;;;;;;6282666;22;20019;-87
2022/03/06 12:52:43;;;;;;;4.38;2.33;;;7.10;50.10;;;;;;6282413;22;20011;-86
2022/03/06 12:55:15;;;;;;;5.50;2.28;;;7.10;49.90;;;;;;6282564;22;20023;-86
2022/03/06 12:57:53;;;;;;;5.25;2.15;;;7.20;50.40;;;;;;6282256;22;20012;-87
2022/03/06 13:00:24;;;;;;;4.40;2.30;;;7.30;49.20;;;;;;6282455;22;20057;-86
2022/03/06 13:02:56;;;;;;;6.20;2.17;;;7.30;48.90;;;;;;6298556;22;20015;-86
2022/03/06 13:05:23;;;;;;;6.32;2.83;;;7.30;48.90;;;;;;6307005;22;20002;-86